sensor_id;sensor_type;location;lat;lon;timestamp;pressure;altitude;pressure_sealevel;temperature;humidity
36284;BME280;56085;48.910;9.478;2023-05-14T00:01:00;98029.78;;;37.44;17.23
36284;BME280;56085;48.910;9.478;2023-05-14T00:03:29;98062.03;;;37.55;17.39
36284;BME280;56085;48.910;9.478;2023-05-14T00:05:55;98040.09;;;37.66;17.37
36284;BME280;56085;48.910;9.478;2023-05-14T00:08:20;98016.84;;;38.25;17.06
36284;BME280;56085;48.910;9.478;2023-05-14T00:10:46;98017.03;;;37.93;17.33
36284;BME280;56085;48.910;9.478;2023-05-14T00:13:12;98044.19;;;37.30;17.58
36284;BME280;56085;48.910;9.478;2023-05-14T00:15:37;97983.56;;;37.36;17.23
36284;BME280;56085;48.910;9.478;2023-05-14T00:18:02;98024.91;;;37.79;17.36
36284;BME280;56085;48.910;9.478;2023-05-14T00:20:27;98017.81;;;37.80;17.59
36284;BME280;56085;48.910;9.478;2023-05-14T00:22:53;98001.31;;;38.15;17.24
36284;BME280;56085;48.910;9.478;2023-05-14T00:25:18;98003.81;;;37.97;17.18
36284;BME280;56085;48.910;9.478;2023-05-14T00:27:43;98001.69;;;37.98;17.05
36284;BME280;56085;48.910;9.478;2023-05-14T00:30:09;98032.53;;;38.03;17.48
36284;BME280;56085;48.910;9.478;2023-05-14T00:32:34;98000.28;;;37.91;16.79
36284;BME280;56085;48.910;9.478;2023-05-14T00:35:00;97989.00;;;38.01;17.43
36284;BME280;56085;48.910;9.478;2023-05-14T00:37:27;97986.63;;;37.78;17.34
36284;BME280;56085;48.910;9.478;2023-05-14T00:39:52;98003.47;;;37.34;17.27
36284;BME280;56085;48.910;9.478;2023-05-14T00:42:17;98005.72;;;37.68;16.83
36284;BME280;56085;48.910;9.478;2023-05-14T00:44:42;97983.75;;;37.65;17.13
36284;BME280;56085;48.910;9.478;2023-05-14T00:47:08;97979.97;;;37.57;16.90
36284;BME280;56085;48.910;9.478;2023-05-14T00:49:33;98029.13;;;37.37;17.29
36284;BME280;56085;48.910;9.478;2023-05-14T00:51:59;98004.94;;;37.27;17.26
36284;BME280;56085;48.910;9.478;2023-05-14T00:54:25;97986.44;;;37.36;16.82
36284;BME280;56085;48.910;9.478;2023-05-14T00:56:51;98006.72;;;37.30;16.96
36284;BME280;56085;48.910;9.478;2023-05-14T00:59:16;97996.56;;;36.97;17.17
36284;BME280;56085;48.910;9.478;2023-05-14T01:01:42;98004.19;;;36.94;16.85
36284;BME280;56085;48.910;9.478;2023-05-14T01:04:08;98069.25;;;37.03;17.28
36284;BME280;56085;48.910;9.478;2023-05-14T01:07:11;98118.56;;;36.99;17.10
36284;BME280;56085;48.910;9.478;2023-05-14T01:09:49;98132.78;;;36.15;16.96
36284;BME280;56085;48.910;9.478;2023-05-14T01:12:23;98141.75;;;35.87;17.08
36284;BME280;56085;48.910;9.478;2023-05-14T01:14:56;98106.22;;;35.85;17.13
36284;BME280;56085;48.910;9.478;2023-05-14T01:17:26;98118.06;;;35.51;17.21
36284;BME280;56085;48.910;9.478;2023-05-14T01:19:53;98089.22;;;35.37;17.28
36284;BME280;56085;48.910;9.478;2023-05-14T01:22:19;97990.09;;;35.19;17.42
36284;BME280;56085;48.910;9.478;2023-05-14T01:24:44;97984.00;;;35.04;17.51
36284;BME280;56085;48.910;9.478;2023-05-14T01:27:34;98110.06;;;35.68;17.38
36284;BME280;56085;48.910;9.478;2023-05-14T01:32:34;98010.31;;;34.77;17.71
36284;BME280;56085;48.910;9.478;2023-05-14T01:35:04;98036.50;;;34.68;17.71
36284;BME280;56085;48.910;9.478;2023-05-14T01:37:31;97998.97;;;34.60;17.53
36284;BME280;56085;48.910;9.478;2023-05-14T01:39:57;98069.47;;;34.56;17.65
36284;BME280;56085;48.910;9.478;2023-05-14T01:42:24;97973.38;;;34.32;18.03
36284;BME280;56085;48.910;9.478;2023-05-14T01:44:50;98003.63;;;33.80;17.83
36284;BME280;56085;48.910;9.478;2023-05-14T01:47:15;98003.50;;;34.08;17.63
36284;BME280;56085;48.910;9.478;2023-05-14T01:49:40;97987.59;;;34.07;17.69
36284;BME280;56085;48.910;9.478;2023-05-14T01:52:06;97998.44;;;34.26;17.92
36284;BME280;56085;48.910;9.478;2023-05-14T01:54:32;97994.75;;;34.67;18.14
36284;BME280;56085;48.910;9.478;2023-05-14T01:56:57;97987.28;;;34.53;17.66
36284;BME280;56085;48.910;9.478;2023-05-14T01:59:23;97985.34;;;34.67;17.88
36284;BME280;56085;48.910;9.478;2023-05-14T02:01:48;97985.06;;;34.70;17.85
36284;BME280;56085;48.910;9.478;2023-05-14T02:04:13;97979.66;;;34.61;18.05
36284;BME280;56085;48.910;9.478;2023-05-14T02:06:38;97985.47;;;34.08;18.08
36284;BME280;56085;48.910;9.478;2023-05-14T02:09:04;97986.44;;;34.28;17.92
36284;BME280;56085;48.910;9.478;2023-05-14T02:11:29;97990.31;;;34.30;18.23
36284;BME280;56085;48.910;9.478;2023-05-14T02:13:54;97967.66;;;34.26;17.97
36284;BME280;56085;48.910;9.478;2023-05-14T02:16:20;97983.38;;;34.14;17.89
36284;BME280;56085;48.910;9.478;2023-05-14T02:18:45;97991.56;;;33.93;18.20
36284;BME280;56085;48.910;9.478;2023-05-14T02:21:10;97985.91;;;34.29;17.86
36284;BME280;56085;48.910;9.478;2023-05-14T02:23:35;97978.28;;;33.96;18.00
36284;BME280;56085;48.910;9.478;2023-05-14T02:26:01;97992.41;;;34.30;18.33
36284;BME280;56085;48.910;9.478;2023-05-14T02:28:26;97978.50;;;34.45;18.14
36284;BME280;56085;48.910;9.478;2023-05-14T02:30:57;98097.50;;;34.80;18.17
36284;BME280;56085;48.910;9.478;2023-05-14T02:33:22;97992.69;;;34.62;18.38
36284;BME280;56085;48.910;9.478;2023-05-14T02:35:47;97989.97;;;34.45;18.22
36284;BME280;56085;48.910;9.478;2023-05-14T02:38:13;97985.13;;;34.29;18.06
36284;BME280;56085;48.910;9.478;2023-05-14T02:40:39;97990.75;;;34.46;18.20
36284;BME280;56085;48.910;9.478;2023-05-14T02:43:04;97977.81;;;34.94;18.00
36284;BME280;56085;48.910;9.478;2023-05-14T02:45:30;97993.38;;;34.43;18.06
36284;BME280;56085;48.910;9.478;2023-05-14T02:47:55;97999.41;;;34.34;18.07
36284;BME280;56085;48.910;9.478;2023-05-14T02:50:20;97990.63;;;34.63;18.47
36284;BME280;56085;48.910;9.478;2023-05-14T02:52:46;97993.03;;;34.53;18.27
36284;BME280;56085;48.910;9.478;2023-05-14T02:55:11;97997.47;;;34.54;18.15
36284;BME280;56085;48.910;9.478;2023-05-14T02:57:37;97974.16;;;34.93;18.25
36284;BME280;56085;48.910;9.478;2023-05-14T03:00:02;97979.44;;;35.14;18.07
36284;BME280;56085;48.910;9.478;2023-05-14T03:02:28;97975.84;;;35.08;18.23
36284;BME280;56085;48.910;9.478;2023-05-14T03:04:53;97977.78;;;35.49;18.14
36284;BME280;56085;48.910;9.478;2023-05-14T03:07:19;97983.75;;;35.70;17.96
36284;BME280;56085;48.910;9.478;2023-05-14T03:09:44;97978.81;;;35.71;18.21
36284;BME280;56085;48.910;9.478;2023-05-14T03:12:09;97990.16;;;35.82;18.12
36284;BME280;56085;48.910;9.478;2023-05-14T03:14:35;97967.00;;;35.93;17.91
36284;BME280;56085;48.910;9.478;2023-05-14T03:17:00;97975.41;;;35.91;17.83
36284;BME280;56085;48.910;9.478;2023-05-14T03:19:25;97963.88;;;35.72;17.99
36284;BME280;56085;48.910;9.478;2023-05-14T03:21:50;97981.28;;;35.11;18.06
36284;BME280;56085;48.910;9.478;2023-05-14T03:24:16;97985.00;;;35.06;18.06
36284;BME280;56085;48.910;9.478;2023-05-14T03:26:41;97993.25;;;35.16;18.02
36284;BME280;56085;48.910;9.478;2023-05-14T03:29:06;97988.91;;;35.34;18.20
36284;BME280;56085;48.910;9.478;2023-05-14T03:31:32;97963.84;;;35.34;18.04
36284;BME280;56085;48.910;9.478;2023-05-14T03:33:57;97981.72;;;35.46;17.92
36284;BME280;56085;48.910;9.478;2023-05-14T03:36:22;97978.00;;;35.51;17.98
36284;BME280;56085;48.910;9.478;2023-05-14T03:38:48;97975.66;;;35.25;18.00
36284;BME280;56085;48.910;9.478;2023-05-14T03:41:13;97980.88;;;35.51;17.83
36284;BME280;56085;48.910;9.478;2023-05-14T03:43:38;97957.78;;;35.38;17.96
36284;BME280;56085;48.910;9.478;2023-05-14T03:46:03;97977.84;;;35.43;17.80
36284;BME280;56085;48.910;9.478;2023-05-14T03:48:29;97979.28;;;35.06;17.94
36284;BME280;56085;48.910;9.478;2023-05-14T03:50:54;97979.00;;;35.54;17.97
36284;BME280;56085;48.910;9.478;2023-05-14T03:53:19;97979.34;;;35.69;17.85
36284;BME280;56085;48.910;9.478;2023-05-14T03:55:45;97970.72;;;35.69;17.80
36284;BME280;56085;48.910;9.478;2023-05-14T03:58:10;97956.44;;;35.63;18.03
36284;BME280;56085;48.910;9.478;2023-05-14T04:00:40;98054.66;;;35.68;18.00
36284;BME280;56085;48.910;9.478;2023-05-14T04:03:05;97972.66;;;36.18;17.88
36284;BME280;56085;48.910;9.478;2023-05-14T04:05:31;97966.69;;;36.35;17.75
36284;BME280;56085;48.910;9.478;2023-05-14T04:07:56;97975.41;;;36.10;18.03
36284;BME280;56085;48.910;9.478;2023-05-14T04:10:22;97955.19;;;36.16;17.71
36284;BME280;56085;48.910;9.478;2023-05-14T04:12:47;97968.03;;;35.96;18.00
36284;BME280;56085;48.910;9.478;2023-05-14T04:15:12;97959.09;;;35.80;17.99
36284;BME280;56085;48.910;9.478;2023-05-14T04:17:38;97974.78;;;35.36;17.86
36284;BME280;56085;48.910;9.478;2023-05-14T04:20:03;97971.97;;;35.74;17.89
36284;BME280;56085;48.910;9.478;2023-05-14T04:22:29;97953.88;;;35.35;17.94
36284;BME280;56085;48.910;9.478;2023-05-14T04:24:54;97967.75;;;35.56;17.94
36284;BME280;56085;48.910;9.478;2023-05-14T04:27:19;97962.78;;;35.56;17.89
36284;BME280;56085;48.910;9.478;2023-05-14T04:29:45;97977.22;;;35.51;17.78
36284;BME280;56085;48.910;9.478;2023-05-14T04:32:11;97967.50;;;35.54;17.94
36284;BME280;56085;48.910;9.478;2023-05-14T04:34:36;97959.41;;;35.96;18.07
36284;BME280;56085;48.910;9.478;2023-05-14T04:37:01;97960.69;;;36.33;18.05
36284;BME280;56085;48.910;9.478;2023-05-14T04:39:28;97948.63;;;36.15;18.00
36284;BME280;56085;48.910;9.478;2023-05-14T04:41:53;97967.19;;;36.01;17.73
36284;BME280;56085;48.910;9.478;2023-05-14T04:44:19;97975.09;;;36.33;17.89
36284;BME280;56085;48.910;9.478;2023-05-14T04:46:44;97977.19;;;36.65;18.19
36284;BME280;56085;48.910;9.478;2023-05-14T04:49:09;97955.56;;;36.07;17.96
36284;BME280;56085;48.910;9.478;2023-05-14T04:51:34;97959.25;;;36.07;17.74
36284;BME280;56085;48.910;9.478;2023-05-14T04:54:00;97956.88;;;36.25;17.75
36284;BME280;56085;48.910;9.478;2023-05-14T04:56:25;97963.78;;;35.84;17.77
36284;BME280;56085;48.910;9.478;2023-05-14T04:58:50;97978.06;;;35.21;17.84
36284;BME280;56085;48.910;9.478;2023-05-14T05:01:16;98039.28;;;35.40;17.89
36284;BME280;56085;48.910;9.478;2023-05-14T05:03:42;97985.78;;;35.07;18.11
36284;BME280;56085;48.910;9.478;2023-05-14T05:06:07;97981.28;;;35.11;17.99
36284;BME280;56085;48.910;9.478;2023-05-14T05:08:32;97967.19;;;35.13;18.08
36284;BME280;56085;48.910;9.478;2023-05-14T05:10:58;97973.56;;;35.01;17.95
36284;BME280;56085;48.910;9.478;2023-05-14T05:13:23;97965.09;;;35.39;18.17
36284;BME280;56085;48.910;9.478;2023-05-14T05:15:48;97948.88;;;35.41;18.17
36284;BME280;56085;48.910;9.478;2023-05-14T05:18:13;97965.78;;;35.45;18.29
36284;BME280;56085;48.910;9.478;2023-05-14T05:20:39;97962.50;;;35.35;18.35
36284;BME280;56085;48.910;9.478;2023-05-14T05:23:04;97966.69;;;35.59;18.40
36284;BME280;56085;48.910;9.478;2023-05-14T05:25:29;97955.41;;;35.61;18.13
36284;BME280;56085;48.910;9.478;2023-05-14T05:27:55;97960.91;;;35.40;18.02
36284;BME280;56085;48.910;9.478;2023-05-14T05:30:20;97972.41;;;35.40;18.21
36284;BME280;56085;48.910;9.478;2023-05-14T05:32:46;97970.00;;;35.63;18.14
36284;BME280;56085;48.910;9.478;2023-05-14T05:35:11;97960.78;;;35.89;18.49
36284;BME280;56085;48.910;9.478;2023-05-14T05:37:36;97963.78;;;35.15;18.17
36284;BME280;56085;48.910;9.478;2023-05-14T05:40:02;97998.63;;;35.00;18.38
36284;BME280;56085;48.910;9.478;2023-05-14T05:42:28;97969.31;;;35.07;18.28
36284;BME280;56085;48.910;9.478;2023-05-14T05:44:53;97972.22;;;34.77;18.34
36284;BME280;56085;48.910;9.478;2023-05-14T05:47:19;97964.97;;;35.01;18.48
36284;BME280;56085;48.910;9.478;2023-05-14T05:49:44;97937.13;;;34.90;18.11
36284;BME280;56085;48.910;9.478;2023-05-14T05:52:09;97957.53;;;35.11;18.46
36284;BME280;56085;48.910;9.478;2023-05-14T05:54:35;97957.97;;;35.21;18.51
36284;BME280;56085;48.910;9.478;2023-05-14T05:57:00;97956.06;;;35.29;18.36
36284;BME280;56085;48.910;9.478;2023-05-14T05:59:25;97972.44;;;34.85;18.64
36284;BME280;56085;48.910;9.478;2023-05-14T06:01:50;97986.69;;;34.96;18.54
36284;BME280;56085;48.910;9.478;2023-05-14T06:04:16;97969.75;;;35.42;18.51
36284;BME280;56085;48.910;9.478;2023-05-14T06:06:41;97954.06;;;35.43;18.51
36284;BME280;56085;48.910;9.478;2023-05-14T06:09:06;97959.34;;;35.82;18.51
36284;BME280;56085;48.910;9.478;2023-05-14T06:11:33;97976.66;;;36.34;18.42
36284;BME280;56085;48.910;9.478;2023-05-14T06:13:58;97949.34;;;36.41;18.55
36284;BME280;56085;48.910;9.478;2023-05-14T06:16:23;97967.34;;;36.74;18.37
36284;BME280;56085;48.910;9.478;2023-05-14T06:18:49;97966.13;;;36.69;18.45
36284;BME280;56085;48.910;9.478;2023-05-14T06:21:16;97957.63;;;36.44;18.62
36284;BME280;56085;48.910;9.478;2023-05-14T06:23:41;97964.78;;;36.57;18.42
36284;BME280;56085;48.910;9.478;2023-05-14T06:26:07;97961.03;;;36.75;18.47
36284;BME280;56085;48.910;9.478;2023-05-14T06:28:32;97964.88;;;37.10;17.92
36284;BME280;56085;48.910;9.478;2023-05-14T06:30:57;97972.88;;;37.04;18.32
36284;BME280;56085;48.910;9.478;2023-05-14T06:33:22;97961.53;;;36.79;17.98
36284;BME280;56085;48.910;9.478;2023-05-14T06:36:02;97978.84;;;37.06;18.48
36284;BME280;56085;48.910;9.478;2023-05-14T06:38:28;97972.31;;;37.19;18.21
36284;BME280;56085;48.910;9.478;2023-05-14T06:40:53;97963.22;;;37.15;18.40
36284;BME280;56085;48.910;9.478;2023-05-14T06:43:18;97970.84;;;36.99;18.02
36284;BME280;56085;48.910;9.478;2023-05-14T06:45:47;98092.94;;;36.96;18.27
36284;BME280;56085;48.910;9.478;2023-05-14T06:48:13;97978.63;;;37.17;17.85
36284;BME280;56085;48.910;9.478;2023-05-14T06:50:38;97987.06;;;37.02;18.29
36284;BME280;56085;48.910;9.478;2023-05-14T06:53:04;97971.00;;;37.47;17.86
36284;BME280;56085;48.910;9.478;2023-05-14T06:55:29;97964.81;;;37.29;18.19
36284;BME280;56085;48.910;9.478;2023-05-14T06:57:54;97945.25;;;37.76;18.37
36284;BME280;56085;48.910;9.478;2023-05-14T07:00:20;97955.63;;;37.92;17.86
36284;BME280;56085;48.910;9.478;2023-05-14T07:02:45;97946.53;;;38.01;18.27
36284;BME280;56085;48.910;9.478;2023-05-14T07:05:11;97950.63;;;38.06;17.61
36284;BME280;56085;48.910;9.478;2023-05-14T07:07:36;97936.25;;;37.93;18.22
36284;BME280;56085;48.910;9.478;2023-05-14T07:10:02;97982.97;;;37.64;17.87
36284;BME280;56085;48.910;9.478;2023-05-14T07:12:27;97942.34;;;37.89;17.96
36284;BME280;56085;48.910;9.478;2023-05-14T07:14:53;97947.69;;;38.19;17.40
36284;BME280;56085;48.910;9.478;2023-05-14T07:17:18;97951.31;;;38.33;17.66
36284;BME280;56085;48.910;9.478;2023-05-14T07:19:43;97935.13;;;38.51;17.31
36284;BME280;56085;48.910;9.478;2023-05-14T07:22:08;97949.03;;;38.61;17.38
36284;BME280;56085;48.910;9.478;2023-05-14T07:24:34;97964.41;;;38.55;17.40
36284;BME280;56085;48.910;9.478;2023-05-14T07:26:59;97935.75;;;38.79;17.41
36284;BME280;56085;48.910;9.478;2023-05-14T07:29:25;97921.16;;;39.13;17.33
36284;BME280;56085;48.910;9.478;2023-05-14T07:31:51;97946.16;;;39.10;17.16
36284;BME280;56085;48.910;9.478;2023-05-14T07:34:16;97937.16;;;38.43;17.25
36284;BME280;56085;48.910;9.478;2023-05-14T07:36:42;97932.13;;;38.65;17.16
36284;BME280;56085;48.910;9.478;2023-05-14T07:39:07;97924.19;;;39.07;17.25
36284;BME280;56085;48.910;9.478;2023-05-14T07:41:32;97933.13;;;39.46;17.06
36284;BME280;56085;48.910;9.478;2023-05-14T07:43:58;97934.31;;;40.03;17.08
36284;BME280;56085;48.910;9.478;2023-05-14T07:46:23;97917.59;;;40.17;16.96
36284;BME280;56085;48.910;9.478;2023-05-14T07:48:49;97919.53;;;40.22;16.75
36284;BME280;56085;48.910;9.478;2023-05-14T07:51:15;97929.75;;;40.23;16.82
36284;BME280;56085;48.910;9.478;2023-05-14T07:53:40;97915.09;;;40.28;16.64
36284;BME280;56085;48.910;9.478;2023-05-14T07:56:06;97950.81;;;39.79;16.73
36284;BME280;56085;48.910;9.478;2023-05-14T07:58:31;97924.34;;;40.19;16.60
36284;BME280;56085;48.910;9.478;2023-05-14T08:00:56;97910.44;;;40.25;16.53
36284;BME280;56085;48.910;9.478;2023-05-14T08:03:22;97932.31;;;40.65;16.80
36284;BME280;56085;48.910;9.478;2023-05-14T08:05:47;97916.50;;;40.58;16.60
36284;BME280;56085;48.910;9.478;2023-05-14T08:08:12;97918.78;;;40.37;16.57
36284;BME280;56085;48.910;9.478;2023-05-14T08:10:38;97914.09;;;40.18;16.50
36284;BME280;56085;48.910;9.478;2023-05-14T08:13:03;97925.69;;;40.10;16.35
36284;BME280;56085;48.910;9.478;2023-05-14T08:15:28;97921.44;;;40.19;16.19
36284;BME280;56085;48.910;9.478;2023-05-14T08:17:53;97938.28;;;40.44;16.19
36284;BME280;56085;48.910;9.478;2023-05-14T08:20:19;97926.91;;;41.00;15.85
36284;BME280;56085;48.910;9.478;2023-05-14T08:22:44;97921.88;;;40.93;16.11
36284;BME280;56085;48.910;9.478;2023-05-14T08:25:09;97949.81;;;40.13;15.88
36284;BME280;56085;48.910;9.478;2023-05-14T08:27:35;97923.25;;;40.69;15.93
36284;BME280;56085;48.910;9.478;2023-05-14T08:30:00;97922.19;;;41.43;15.73
36284;BME280;56085;48.910;9.478;2023-05-14T08:32:26;97901.59;;;40.70;15.85
36284;BME280;56085;48.910;9.478;2023-05-14T08:34:51;97898.47;;;40.13;15.88
36284;BME280;56085;48.910;9.478;2023-05-14T08:37:16;97923.50;;;39.95;15.73
36284;BME280;56085;48.910;9.478;2023-05-14T08:39:42;97987.47;;;40.21;15.52
36284;BME280;56085;48.910;9.478;2023-05-14T08:42:11;98052.06;;;40.60;15.65
36284;BME280;56085;48.910;9.478;2023-05-14T08:44:47;98060.81;;;41.29;15.33
36284;BME280;56085;48.910;9.478;2023-05-14T08:47:15;97973.22;;;41.31;15.75
36284;BME280;56085;48.910;9.478;2023-05-14T08:49:42;97967.31;;;40.98;15.60
36284;BME280;56085;48.910;9.478;2023-05-14T08:52:11;97909.31;;;40.44;15.70
36284;BME280;56085;48.910;9.478;2023-05-14T08:54:37;97923.44;;;40.47;15.16
36284;BME280;56085;48.910;9.478;2023-05-14T08:57:03;97955.66;;;40.44;15.49
36284;BME280;56085;48.910;9.478;2023-05-14T08:59:29;97882.66;;;40.84;15.37
36284;BME280;56085;48.910;9.478;2023-05-14T09:01:55;97962.47;;;40.93;15.27
36284;BME280;56085;48.910;9.478;2023-05-14T09:04:23;97946.38;;;41.38;15.19
36284;BME280;56085;48.910;9.478;2023-05-14T09:06:52;97963.97;;;41.25;15.32
36284;BME280;56085;48.910;9.478;2023-05-14T09:09:21;97929.63;;;40.90;15.11
36284;BME280;56085;48.910;9.478;2023-05-14T09:11:50;97948.28;;;40.20;15.17
36284;BME280;56085;48.910;9.478;2023-05-14T09:14:16;97932.38;;;39.97;15.18
36284;BME280;56085;48.910;9.478;2023-05-14T09:16:44;98041.88;;;40.97;15.10
36284;BME280;56085;48.910;9.478;2023-05-14T09:19:11;97973.22;;;40.38;15.07
36284;BME280;56085;48.910;9.478;2023-05-14T09:21:36;97880.53;;;40.38;15.28
36284;BME280;56085;48.910;9.478;2023-05-14T09:24:02;97887.50;;;40.43;15.18
36284;BME280;56085;48.910;9.478;2023-05-14T09:26:31;98021.00;;;41.22;15.08
36284;BME280;56085;48.910;9.478;2023-05-14T09:28:57;97935.00;;;40.32;15.26
36284;BME280;56085;48.910;9.478;2023-05-14T09:31:27;97887.88;;;40.62;15.27
36284;BME280;56085;48.910;9.478;2023-05-14T09:33:53;97879.22;;;40.70;15.20
36284;BME280;56085;48.910;9.478;2023-05-14T09:36:18;97883.47;;;40.46;15.13
36284;BME280;56085;48.910;9.478;2023-05-14T09:38:44;97862.00;;;40.41;15.18
36284;BME280;56085;48.910;9.478;2023-05-14T09:41:09;97906.66;;;39.78;15.16
36284;BME280;56085;48.910;9.478;2023-05-14T09:43:35;97871.69;;;39.61;15.18
36284;BME280;56085;48.910;9.478;2023-05-14T09:46:00;97889.03;;;40.36;15.35
36284;BME280;56085;48.910;9.478;2023-05-14T09:48:25;97869.94;;;40.72;15.35
36284;BME280;56085;48.910;9.478;2023-05-14T09:50:51;97860.63;;;40.89;14.94
36284;BME280;56085;48.910;9.478;2023-05-14T09:53:16;97901.59;;;40.62;14.98
36284;BME280;56085;48.910;9.478;2023-05-14T09:55:43;97870.31;;;40.76;15.04
36284;BME280;56085;48.910;9.478;2023-05-14T09:58:08;97861.38;;;41.05;14.94
36284;BME280;56085;48.910;9.478;2023-05-14T10:00:34;97881.09;;;41.14;14.86
36284;BME280;56085;48.910;9.478;2023-05-14T10:03:04;98016.13;;;41.56;14.64
36284;BME280;56085;48.910;9.478;2023-05-14T10:05:36;97946.19;;;41.21;14.95
36284;BME280;56085;48.910;9.478;2023-05-14T10:08:19;98039.44;;;41.96;14.67
36284;BME280;56085;48.910;9.478;2023-05-14T10:10:47;97933.34;;;41.62;14.92
36284;BME280;56085;48.910;9.478;2023-05-14T10:13:18;98010.53;;;41.58;14.45
36284;BME280;56085;48.910;9.478;2023-05-14T10:15:51;98032.97;;;41.65;14.71
36284;BME280;56085;48.910;9.478;2023-05-14T10:18:19;97904.16;;;41.52;14.49
36284;BME280;56085;48.910;9.478;2023-05-14T10:20:50;97950.97;;;41.57;14.66
36284;BME280;56085;48.910;9.478;2023-05-14T10:23:17;97871.06;;;41.56;14.80
36284;BME280;56085;48.910;9.478;2023-05-14T10:25:43;97873.13;;;41.78;14.57
36284;BME280;56085;48.910;9.478;2023-05-14T10:28:09;97864.06;;;41.66;14.17
36284;BME280;56085;48.910;9.478;2023-05-14T10:30:42;98039.38;;;42.19;14.27
36284;BME280;56085;48.910;9.478;2023-05-14T10:33:10;97997.91;;;42.27;14.33
36284;BME280;56085;48.910;9.478;2023-05-14T10:36:04;98003.59;;;42.75;14.14
36284;BME280;56085;48.910;9.478;2023-05-14T10:38:34;98006.81;;;42.87;14.23
36284;BME280;56085;48.910;9.478;2023-05-14T10:41:04;98041.28;;;42.90;14.33
36284;BME280;56085;48.910;9.478;2023-05-14T10:43:35;98023.06;;;42.65;13.99
36284;BME280;56085;48.910;9.478;2023-05-14T10:46:01;97874.03;;;42.89;14.39
36284;BME280;56085;48.910;9.478;2023-05-14T10:48:27;97855.41;;;42.50;14.39
36284;BME280;56085;48.910;9.478;2023-05-14T10:50:52;97870.41;;;42.38;14.24
36284;BME280;56085;48.910;9.478;2023-05-14T10:53:18;97873.34;;;42.81;14.18
36284;BME280;56085;48.910;9.478;2023-05-14T10:55:44;97855.16;;;43.33;13.92
36284;BME280;56085;48.910;9.478;2023-05-14T10:58:10;97878.41;;;43.33;13.75
36284;BME280;56085;48.910;9.478;2023-05-14T11:00:37;97887.06;;;43.58;13.86
36284;BME280;56085;48.910;9.478;2023-05-14T11:03:04;97889.72;;;43.29;13.77
36284;BME280;56085;48.910;9.478;2023-05-14T11:05:30;97856.50;;;43.32;13.44
36284;BME280;56085;48.910;9.478;2023-05-14T11:07:56;97883.72;;;43.62;13.50
36284;BME280;56085;48.910;9.478;2023-05-14T11:10:22;97864.03;;;43.35;13.35
36284;BME280;56085;48.910;9.478;2023-05-14T11:12:50;97869.66;;;43.68;13.52
36284;BME280;56085;48.910;9.478;2023-05-14T11:15:18;97922.66;;;43.84;13.34
36284;BME280;56085;48.910;9.478;2023-05-14T11:17:44;97892.53;;;43.99;13.38
36284;BME280;56085;48.910;9.478;2023-05-14T11:20:11;97845.06;;;44.06;13.34
36284;BME280;56085;48.910;9.478;2023-05-14T11:22:38;97886.25;;;44.03;13.50
36284;BME280;56085;48.910;9.478;2023-05-14T11:25:04;97885.59;;;44.22;13.19
36284;BME280;56085;48.910;9.478;2023-05-14T11:27:32;97863.53;;;44.66;13.22
36284;BME280;56085;48.910;9.478;2023-05-14T11:29:58;97839.28;;;44.63;13.25
36284;BME280;56085;48.910;9.478;2023-05-14T11:32:25;97791.88;;;44.53;13.06
36284;BME280;56085;48.910;9.478;2023-05-14T11:34:52;97820.13;;;44.70;13.02
36284;BME280;56085;48.910;9.478;2023-05-14T11:37:17;97820.47;;;44.84;12.94
36284;BME280;56085;48.910;9.478;2023-05-14T11:40:01;97951.34;;;45.65;12.66
36284;BME280;56085;48.910;9.478;2023-05-14T11:42:27;97809.00;;;45.05;12.63
36284;BME280;56085;48.910;9.478;2023-05-14T11:44:52;97800.34;;;45.27;12.81
36284;BME280;56085;48.910;9.478;2023-05-14T11:47:21;97839.81;;;45.38;12.65
36284;BME280;56085;48.910;9.478;2023-05-14T11:49:47;97822.78;;;45.05;12.77
36284;BME280;56085;48.910;9.478;2023-05-14T11:52:14;97867.88;;;45.92;12.23
36284;BME280;56085;48.910;9.478;2023-05-14T11:54:41;97872.25;;;46.54;12.20
36284;BME280;56085;48.910;9.478;2023-05-14T11:57:12;97981.63;;;47.66;11.94
36284;BME280;56085;48.910;9.478;2023-05-14T11:59:39;97821.03;;;47.96;11.95
36284;BME280;56085;48.910;9.478;2023-05-14T12:02:09;97945.78;;;48.11;11.86
36284;BME280;56085;48.910;9.478;2023-05-14T12:04:34;97798.34;;;47.73;11.85
36284;BME280;56085;48.910;9.478;2023-05-14T12:07:09;97950.44;;;48.73;11.46
36284;BME280;56085;48.910;9.478;2023-05-14T12:09:39;97891.75;;;48.38;11.50
36284;BME280;56085;48.910;9.478;2023-05-14T12:12:16;97962.75;;;48.24;11.25
36284;BME280;56085;48.910;9.478;2023-05-14T12:14:42;97795.41;;;48.09;11.33
36284;BME280;56085;48.910;9.478;2023-05-14T12:17:21;97949.81;;;48.63;11.15
36284;BME280;56085;48.910;9.478;2023-05-14T12:19:48;97846.63;;;48.90;10.75
36284;BME280;56085;48.910;9.478;2023-05-14T12:22:17;97926.19;;;49.46;10.71
36284;BME280;56085;48.910;9.478;2023-05-14T12:24:52;97948.22;;;50.22;10.96
36284;BME280;56085;48.910;9.478;2023-05-14T12:27:21;97944.81;;;50.14;10.39
36284;BME280;56085;48.910;9.478;2023-05-14T12:29:47;97755.22;;;49.59;10.62
36284;BME280;56085;48.910;9.478;2023-05-14T12:32:13;97833.31;;;49.90;10.85
36284;BME280;56085;48.910;9.478;2023-05-14T12:34:38;97769.69;;;49.55;10.68
36284;BME280;56085;48.910;9.478;2023-05-14T12:37:04;97834.53;;;49.73;10.34
36284;BME280;56085;48.910;9.478;2023-05-14T12:39:32;97867.75;;;50.16;10.25
36284;BME280;56085;48.910;9.478;2023-05-14T12:41:58;97744.28;;;50.02;9.87
36284;BME280;56085;48.910;9.478;2023-05-14T12:44:23;97738.50;;;51.03;9.96
36284;BME280;56085;48.910;9.478;2023-05-14T12:46:48;97739.63;;;51.42;9.93
36284;BME280;56085;48.910;9.478;2023-05-14T12:49:14;97739.28;;;51.65;9.51
36284;BME280;56085;48.910;9.478;2023-05-14T12:51:39;97761.75;;;50.83;9.57
36284;BME280;56085;48.910;9.478;2023-05-14T12:54:05;97748.94;;;50.76;9.72
36284;BME280;56085;48.910;9.478;2023-05-14T12:56:30;97733.97;;;50.01;9.28
36284;BME280;56085;48.910;9.478;2023-05-14T12:58:56;97731.22;;;50.19;9.76